| time (UTC) | temp F | wind direction | speed knots | gust knots | rain 1hr in | rain 24hr in | rain mn in | humidity % | barometer mb |
| 20260502190247 | 72 | 246 | 3.5 | 6.1 | 0.00 | 0.00 | 0.00 | 11 | 1018.7 |
| 20260502185751 | 71 | 254 | 2.6 | 9.6 | 0.00 | 0.00 | 0.00 | 12 | 1018.7 |
| 20260502185244 | 71 | 272 | 4.3 | 9.6 | 0.00 | 0.00 | 0.00 | 13 | 1018.8 |
| 20260502184748 | 71 | 216 | 3.5 | 8.7 | 0.00 | 0.00 | 0.00 | 12 | 1018.9 |
| 20260502184255 | 71 | 162 | 4.3 | 8.7 | 0.00 | 0.00 | 0.00 | 12 | 1018.9 |
| 20260502183758 | 71 | 262 | 5.2 | 8.7 | 0.00 | 0.00 | 0.00 | 11 | 1019.0 |
| 20260502183246 | 71 | 237 | 2.6 | 6.1 | 0.00 | 0.00 | 0.00 | 13 | 1019.0 |
| 20260502182811 | 71 | 215 | 3.5 | 7.0 | 0.00 | 0.00 | 0.00 | 13 | 1019.1 |
| 20260502182257 | 71 | 138 | 0.9 | 9.6 | 0.00 | 0.00 | 0.00 | 14 | 1019.0 |
| 20260502181742 | 70 | 235 | 4.3 | 9.6 | 0.00 | 0.00 | 0.00 | 15 | 1019.1 |
| 20260502181248 | 69 | 227 | 1.7 | 7.8 | 0.00 | 0.00 | 0.00 | 18 | 1019.2 |
| 20260502180753 | 68 | 285 | 3.5 | 7.8 | 0.00 | 0.00 | 0.00 | 17 | 1019.2 |
| 20260502180300 | 68 | 175 | 1.7 | 7.0 | 0.00 | 0.00 | 0.00 | 18 | 1019.3 |
| 20260502170245 | 64 | 168 | 2.6 | 7.8 | 0.00 | 0.00 | 0.00 | 20 | 1019.6 |
| 20260502164305 | 62 | 262 | 2.6 | 5.2 | 0.00 | 0.00 | 0.00 | 22 | 1019.7 |
| 20260502163747 | 61 | 185 | 2.6 | 6.1 | 0.00 | 0.00 | 0.00 | 25 | 1019.7 |
| 20260502163314 | 61 | 164 | 2.6 | 4.3 | 0.00 | 0.00 | 0.00 | 25 | 1019.8 |
| 20260502162817 | 60 | 147 | 0.9 | 3.5 | 0.00 | 0.00 | 0.00 | 26 | 1019.7 |
| 20260502162243 | 59 | 19 | 1.7 | 3.5 | 0.00 | 0.00 | 0.00 | 30 | 1019.7 |
| 20260502161747 | 58 | 330 | 1.7 | 4.3 | 0.00 | 0.00 | 0.00 | 30 | 1019.8 |
| 20260502161254 | 57 | 31 | 1.7 | 4.3 | 0.00 | 0.00 | 0.00 | 31 | 1019.8 |
| 20260502160757 | 57 | 352 | 1.7 | 3.5 | 0.00 | 0.00 | 0.00 | 31 | 1019.8 |
| 20260502160244 | 56 | 199 | 0.9 | 2.6 | 0.00 | 0.00 | 0.00 | 32 | 1019.8 |
| 20260502152248 | 50 | 14 | 1.7 | 3.5 | 0.00 | 0.00 | 0.00 | 40 | 1020.1 |
| 20260502151752 | 49 | 341 | 2.6 | 4.3 | 0.00 | 0.00 | 0.00 | 40 | 1020.0 |
| 20260502151320 | 49 | 39 | 2.6 | 4.3 | 0.00 | 0.00 | 0.00 | 43 | 1019.9 |
| 20260502150742 | 48 | 22 | 2.6 | 4.3 | 0.00 | 0.00 | 0.00 | 44 | 1020.0 |
| 20260502150249 | 48 | 6 | 2.6 | 3.5 | 0.00 | 0.00 | 0.00 | 46 | 1020.0 |
| 20260502130259 | 28 | 16 | 0.0 | 1.7 | 0.00 | 0.00 | 0.00 | 65 | 1019.7 |
| 20260502123804 | 28 | 49 | 0.0 | 1.7 | 0.00 | 0.00 | 0.00 | 64 | 1019.8 |
| 20260502123249 | 28 | 49 | 1.7 | 1.7 | 0.00 | 0.00 | 0.00 | 64 | 1019.7 |
| 20260502122752 | 28 | 49 | 0.0 | 0.9 | 0.00 | 0.00 | 0.00 | 64 | 1019.9 |
| 20260502122259 | 28 | 49 | 0.9 | 0.9 | 0.00 | 0.00 | 0.00 | 63 | 1019.7 |
| 20260502121742 | 28 | 49 | 0.0 | 0.0 | 0.00 | 0.00 | 0.00 | 63 | 1019.8 |
| 20260502121249 | 28 | 49 | 0.0 | 0.0 | 0.00 | 0.00 | 0.00 | 63 | 1019.8 |
| 20260502120753 | 28 | 49 | 0.0 | 0.0 | 0.00 | 0.00 | 0.00 | 63 | 1019.8 |
| 20260502120301 | 28 | 49 | 0.0 | 0.0 | 0.00 | 0.00 | 0.00 | 63 | 1019.8 |
| 20260502115745 | 28 | 49 | 0.0 | 0.0 | 0.00 | 0.00 | 0.00 | 63 | 1019.8 |
| 20260502115252 | 28 | 49 | 0.0 | 0.9 | 0.00 | 0.00 | 0.00 | 63 | 1019.8 |
| 20260502114816 | 28 | 49 | 0.0 | 0.9 | 0.00 | 0.00 | 0.00 | 63 | 1019.9 |
| 20260502114302 | 28 | 49 | 0.9 | 0.9 | 0.00 | 0.00 | 0.00 | 63 | 1019.8 |
| 20260502113746 | 28 | 49 | 0.0 | 0.9 | 0.00 | 0.00 | 0.00 | 63 | 1019.8 |
| 20260502113253 | 28 | 49 | 0.0 | 0.9 | 0.00 | 0.00 | 0.00 | 63 | 1019.8 |
| 20260502112757 | 28 | 49 | 0.0 | 2.6 | 0.00 | 0.00 | 0.00 | 62 | 1019.8 |
| 20260502112305 | 28 | 49 | 0.9 | 2.6 | 0.00 | 0.00 | 0.00 | 62 | 1019.9 |
| 20260502111747 | 28 | 49 | 1.7 | 2.6 | 0.00 | 0.00 | 0.00 | 62 | 1019.8 |
| 20260502111254 | 28 | 49 | 0.9 | 1.7 | 0.00 | 0.00 | 0.00 | 61 | 1019.9 |
| 20260502110758 | 29 | 49 | 0.0 | 0.9 | 0.00 | 0.00 | 0.00 | 60 | 1020.0 |
| 20260502110244 | 29 | 49 | 0.0 | 0.9 | 0.00 | 0.00 | 0.00 | 60 | 1019.8 |
| 20260502105747 | 29 | 49 | 0.9 | 0.9 | 0.00 | 0.00 | 0.00 | 60 | 1019.8 |
| 20260502105254 | 29 | 49 | 0.0 | 0.0 | 0.00 | 0.00 | 0.00 | 60 | 1019.8 |
| 20260502104757 | 29 | 49 | 0.0 | 1.7 | 0.00 | 0.00 | 0.00 | 60 | 1020.0 |
| 20260502104304 | 29 | 49 | 0.0 | 1.7 | 0.00 | 0.00 | 0.00 | 60 | 1019.8 |
| 20260502103748 | 29 | 49 | 0.0 | 0.9 | 0.00 | 0.00 | 0.00 | 60 | 1019.8 |
| 20260502103255 | 29 | 49 | 0.0 | 1.7 | 0.00 | 0.00 | 0.00 | 60 | 1019.9 |
| 20260502102818 | 29 | 49 | 0.9 | 1.7 | 0.00 | 0.00 | 0.00 | 59 | 1019.8 |
| 20260502102244 | 30 | 49 | 0.0 | 1.7 | 0.00 | 0.00 | 0.00 | 59 | 1020.2 |
| 20260502101749 | 30 | 49 | 0.0 | 1.7 | 0.00 | 0.00 | 0.00 | 59 | 1019.9 |
| 20260502101256 | 30 | 49 | 0.9 | 1.7 | 0.00 | 0.00 | 0.00 | 59 | 1019.8 |
| 20260502100759 | 30 | 49 | 0.0 | 0.0 | 0.00 | 0.00 | 0.00 | 58 | 1019.9 |
| 20260502100246 | 30 | 49 | 0.0 | 1.7 | 0.00 | 0.00 | 0.00 | 58 | 1019.8 |
| 20260502091319 | 32 | 49 | 0.9 | 1.7 | 0.00 | 0.00 | 0.00 | 55 | 1019.5 |
| 20260502090801 | 32 | 49 | 0.0 | 0.9 | 0.00 | 0.00 | 0.00 | 55 | 1019.6 |
| 20260502090246 | 32 | 49 | 0.0 | 0.9 | 0.00 | 0.00 | 0.00 | 55 | 1019.6 |
| 20260502071251 | 38 | 49 | 0.0 | 0.9 | 0.00 | 0.00 | 0.00 | 46 | 1019.6 |
| 20260502070755 | 38 | 49 | 0.0 | 2.6 | 0.00 | 0.00 | 0.00 | 45 | 1019.5 |
| 20260502070301 | 39 | 49 | 0.9 | 2.6 | 0.00 | 0.00 | 0.00 | 45 | 1019.5 |
| 20260502065805 | 40 | 49 | 0.9 | 1.7 | 0.00 | 0.00 | 0.00 | 43 | 1019.5 |
| 20260502065310 | 40 | 49 | 0.0 | 0.9 | 0.00 | 0.00 | 0.00 | 43 | 1019.6 |
| 20260502064752 | 41 | 49 | 0.0 | 1.7 | 0.00 | 0.00 | 0.00 | 42 | 1019.5 |
| 20260502064258 | 41 | 49 | 0.0 | 1.7 | 0.00 | 0.00 | 0.00 | 41 | 1019.5 |
| 20260502063744 | 42 | 49 | 0.9 | 1.7 | 0.00 | 0.00 | 0.00 | 41 | 1019.5 |
| 20260502063252 | 42 | 49 | 0.9 | 1.7 | 0.00 | 0.00 | 0.00 | 40 | 1019.4 |
| 20260502062757 | 42 | 49 | 0.0 | 2.6 | 0.00 | 0.00 | 0.00 | 40 | 1019.3 |
| 20260502062244 | 43 | 48 | 0.9 | 3.5 | 0.00 | 0.00 | 0.00 | 38 | 1019.2 |
| 20260502061748 | 43 | 110 | 0.9 | 3.5 | 0.00 | 0.00 | 0.00 | 38 | 1019.2 |
| 20260502061255 | 42 | 128 | 0.9 | 3.5 | 0.00 | 0.00 | 0.00 | 38 | 1019.1 |
| 20260502060738 | 42 | 135 | 0.9 | 5.2 | 0.00 | 0.00 | 0.00 | 38 | 1019.1 |
| 20260502060245 | 42 | 144 | 1.7 | 5.2 | 0.00 | 0.00 | 0.00 | 39 | 1019.1 |
| 20260502055748 | 41 | 151 | 1.7 | 7.8 | 0.00 | 0.00 | 0.00 | 40 | 1019.1 |
| 20260502055256 | 41 | 140 | 1.7 | 7.8 | 0.00 | 0.00 | 0.00 | 42 | 1019.1 |
| 20260502054758 | 41 | 209 | 1.7 | 3.5 | 0.00 | 0.00 | 0.00 | 43 | 1019.0 |
| 20260502054244 | 41 | 175 | 0.9 | 2.6 | 0.00 | 0.00 | 0.00 | 42 | 1019.1 |
| 20260502053748 | 41 | 151 | 1.7 | 2.6 | 0.00 | 0.00 | 0.00 | 42 | 1018.9 |
| 20260502053255 | 41 | 151 | 0.9 | 2.6 | 0.00 | 0.00 | 0.00 | 43 | 1019.1 |
| 20260502052739 | 41 | 156 | 0.9 | 3.5 | 0.00 | 0.00 | 0.00 | 43 | 1019.0 |
| 20260502052306 | 41 | 175 | 1.7 | 3.5 | 0.00 | 0.00 | 0.00 | 42 | 1019.0 |
| 20260502051749 | 42 | 153 | 1.7 | 3.5 | 0.00 | 0.00 | 0.00 | 42 | 1019.0 |
| 20260502051256 | 42 | 185 | 1.7 | 3.5 | 0.00 | 0.00 | 0.00 | 42 | 1019.0 |
| 20260502050744 | 42 | 159 | 1.7 | 2.6 | 0.00 | 0.00 | 0.00 | 41 | 1019.0 |
| 20260502050311 | 42 | 126 | 0.9 | 1.7 | 0.00 | 0.00 | 0.00 | 41 | 1019.0 |
| 20260502045755 | 42 | 126 | 0.9 | 1.7 | 0.00 | 0.00 | 0.00 | 40 | 1018.9 |
| 20260502045243 | 42 | 126 | 0.0 | 1.7 | 0.00 | 0.00 | 0.00 | 40 | 1019.0 |
| 20260502044745 | 43 | 126 | 0.9 | 1.7 | 0.00 | 0.00 | 0.00 | 39 | 1018.9 |
| 20260502044254 | 43 | 126 | 0.9 | 2.6 | 0.00 | 0.00 | 0.00 | 40 | 1019.0 |
| 20260502043738 | 43 | 126 | 0.9 | 2.6 | 0.00 | 0.00 | 0.00 | 39 | 1019.0 |
| 20260502043245 | 43 | 126 | 0.9 | 1.7 | 0.00 | 0.00 | 0.00 | 39 | 1018.9 |
| 20260502042749 | 43 | 126 | 0.9 | 0.9 | 0.00 | 0.00 | 0.00 | 39 | 1018.9 |
| 20260502042256 | 44 | 126 | 0.0 | 0.9 | 0.00 | 0.00 | 0.00 | 39 | 1018.9 |
| 20260502041740 | 44 | 126 | 0.0 | 0.9 | 0.00 | 0.00 | 0.00 | 39 | 1018.9 |
| 20260502041248 | 44 | 126 | 0.0 | 1.7 | 0.00 | 0.00 | 0.00 | 37 | 1018.9 |
| 20260502040753 | 45 | 126 | 0.9 | 1.7 | 0.00 | 0.00 | 0.00 | 37 | 1018.9 |
| 20260502040320 | 45 | 126 | 0.9 | 1.7 | 0.00 | 0.00 | 0.00 | 36 | 1018.9 |
| 20260502035803 | 45 | 126 | 0.0 | 1.7 | 0.00 | 0.00 | 0.00 | 36 | 1018.8 |
| 20260502035249 | 46 | 126 | 0.0 | 1.7 | 0.00 | 0.00 | 0.00 | 34 | 1018.8 |
| 20260502034754 | 46 | 126 | 0.0 | 2.6 | 0.00 | 0.00 | 0.00 | 35 | 1018.8 |
| 20260502034302 | 47 | 126 | 0.0 | 2.6 | 0.00 | 0.00 | 0.00 | 33 | 1018.8 |
| 20260502033744 | 47 | 126 | 0.0 | 1.7 | 0.00 | 0.00 | 0.00 | 32 | 1018.6 |
| 20260502033249 | 48 | 126 | 0.9 | 1.7 | 0.00 | 0.00 | 0.00 | 32 | 1018.6 |
| 20260502032753 | 48 | 126 | 0.9 | 2.6 | 0.00 | 0.00 | 0.00 | 31 | 1018.6 |
| 20260502032301 | 49 | 126 | 1.7 | 2.6 | 0.00 | 0.00 | 0.00 | 29 | 1018.6 |
| 20260502031745 | 49 | 185 | 0.0 | 1.7 | 0.00 | 0.00 | 0.00 | 30 | 1018.5 |
| 20260502031250 | 50 | 185 | 0.9 | 1.7 | 0.00 | 0.00 | 0.00 | 26 | 1018.5 |
| 20260502030754 | 50 | 185 | 0.9 | 0.9 | 0.00 | 0.00 | 0.00 | 24 | 1018.5 |
| 20260502030321 | 51 | 185 | 0.0 | 0.9 | 0.00 | 0.00 | 0.00 | 24 | 1018.4 |
| 20260502025741 | 52 | 185 | 0.0 | 0.9 | 0.00 | 0.00 | 0.00 | 21 | 1018.4 |
| 20260502025247 | 53 | 185 | 0.0 | 0.9 | 0.00 | 0.00 | 0.00 | 23 | 1018.3 |
| 20260502024751 | 54 | 185 | 0.0 | 0.0 | 0.00 | 0.00 | 0.00 | 24 | 1018.2 |
| 20260502024256 | 55 | 185 | 0.0 | 0.0 | 0.00 | 0.00 | 0.00 | 24 | 1018.2 |
| 20260502023739 | 55 | 185 | 0.0 | 0.0 | 0.00 | 0.00 | 0.00 | 20 | 1018.2 |
| 20260502023246 | 57 | 185 | 0.0 | 0.0 | 0.00 | 0.00 | 0.00 | 21 | 1018.1 |
| 20260502022750 | 58 | 185 | 0.0 | 0.0 | 0.00 | 0.00 | 0.00 | 19 | 1018.1 |
| 20260502022256 | 59 | 185 | 0.0 | 0.9 | 0.00 | 0.00 | 0.00 | 18 | 1018.1 |
| 20260502021740 | 60 | 185 | 0.0 | 1.7 | 0.00 | 0.00 | 0.00 | 14 | 1018.0 |
| 20260502021245 | 60 | 185 | 0.9 | 1.7 | 0.00 | 0.00 | 0.00 | 14 | 1018.1 |
| 20260502020749 | 61 | 185 | 0.9 | 1.7 | 0.00 | 0.00 | 0.00 | 16 | 1018.1 |
| 20260502020257 | 62 | 185 | 0.0 | 0.9 | 0.00 | 0.00 | 0.00 | 13 | 1018.1 |
| 20260502015740 | 63 | 185 | 0.0 | 1.7 | 0.00 | 0.00 | 0.00 | 14 | 1018.1 |
| 20260502015247 | 63 | 185 | 0.0 | 1.7 | 0.00 | 0.00 | 0.00 | 12 | 1018.1 |
| 20260502014811 | 63 | 185 | 0.9 | 1.7 | 0.00 | 0.00 | 0.00 | 11 | 1018.1 |
| 20260502014318 | 64 | 185 | 0.9 | 1.7 | 0.00 | 0.00 | 0.00 | 12 | 1018.1 |
| 20260502013740 | 64 | 185 | 0.0 | 1.7 | 0.00 | 0.00 | 0.00 | 10 | 1018.1 |
| 20260502013246 | 65 | 225 | 0.0 | 3.5 | 0.00 | 0.00 | 0.00 | 8 | 1018.0 |
| 20260502012749 | 65 | 216 | 0.9 | 3.5 | 0.00 | 0.00 | 0.00 | 8 | 1018.1 |
| 20260502012316 | 66 | 229 | 0.9 | 1.7 | 0.00 | 0.00 | 0.00 | 8 | 1018.1 |
| 20260502011740 | 66 | 229 | 0.9 | 2.6 | 0.00 | 0.00 | 0.00 | 7 | 1018.0 |
| 20260502011246 | 66 | 194 | 0.9 | 3.5 | 0.00 | 0.00 | 0.00 | 5 | 1018.1 |
| 20260502010810 | 66 | 248 | 1.7 | 3.5 | 0.00 | 0.00 | 0.00 | 5 | 1018.1 |
| 20260502010259 | 67 | 271 | 1.7 | 3.5 | 0.00 | 0.00 | 0.00 | 5 | 1018.1 |
| 20260502005742 | 67 | 125 | 0.9 | 3.5 | 0.00 | 0.00 | 0.00 | 4 | 1018.1 |
| 20260502005250 | 67 | 324 | 0.9 | 3.5 | 0.00 | 0.00 | 0.00 | 4 | 1018.1 |
| 20260502004754 | 67 | 193 | 0.9 | 2.6 | 0.00 | 0.00 | 0.00 | 3 | 1018.2 |
| 20260502004300 | 67 | 265 | 0.9 | 2.6 | 0.00 | 0.00 | 0.00 | 4 | 1018.2 |
| 20260502003743 | 67 | 265 | 0.9 | 3.5 | 0.00 | 0.00 | 0.00 | 5 | 1018.2 |
| 20260502003251 | 67 | 227 | 1.7 | 3.5 | 0.00 | 0.00 | 0.00 | 7 | 1018.2 |
| 20260502002755 | 67 | 253 | 0.9 | 5.2 | 0.00 | 0.00 | 0.00 | 6 | 1018.1 |
| 20260502002305 | 67 | 175 | 2.6 | 5.2 | 0.00 | 0.00 | 0.00 | 7 | 1018.2 |
| 20260502001744 | 68 | 122 | 2.6 | 5.2 | 0.00 | 0.00 | 0.00 | 6 | 1018.2 |
| 20260502001250 | 68 | 189 | 0.9 | 5.2 | 0.00 | 0.00 | 0.00 | 9 | 1018.3 |
| 20260502000754 | 68 | 260 | 0.9 | 3.5 | 0.00 | 0.00 | 0.00 | 7 | 1018.2 |
| 20260502000303 | 69 | 130 | 1.7 | 4.3 | 0.00 | 0.00 | 0.00 | 6 | 1018.3 |
| 20260501235806 | 69 | 345 | 0.9 | 4.3 | 0.00 | 0.00 | 0.00 | 4 | 1018.2 |
| 20260501235251 | 69 | 299 | 1.7 | 3.5 | 0.00 | 0.00 | 0.00 | 4 | 1018.3 |
| 20260501234755 | 69 | 266 | 0.9 | 3.5 | 0.00 | 0.00 | 0.00 | 4 | 1018.3 |
| 20260501234242 | 69 | 235 | 1.7 | 4.3 | 0.00 | 0.00 | 0.00 | 5 | 1018.3 |
| 20260501233746 | 69 | 244 | 2.6 | 4.3 | 0.00 | 0.00 | 0.00 | 3 | 1018.3 |
| 20260501233253 | 69 | 266 | 2.6 | 5.2 | 0.00 | 0.00 | 0.00 | 2 | 1018.4 |
| 20260501232757 | 69 | 148 | 0.9 | 7.0 | 0.00 | 0.00 | 0.00 | 3 | 1018.3 |
| 20260501232245 | 69 | 220 | 2.6 | 7.0 | 0.00 | 0.00 | 0.00 | 4 | 1018.3 |
| 20260501231749 | 69 | 285 | 0.9 | 3.5 | 0.00 | 0.00 | 0.00 | 4 | 1018.3 |
| 20260501231256 | 69 | 328 | 1.7 | 7.0 | 0.00 | 0.00 | 0.00 | 5 | 1018.5 |
| 20260501230741 | 69 | 201 | 4.3 | 7.0 | 0.00 | 0.00 | 0.00 | 7 | 1018.5 |
| 20260501230247 | 69 | 252 | 2.6 | 6.1 | 0.00 | 0.00 | 0.00 | 6 | 1018.5 |
| 20260501225751 | 69 | 279 | 1.7 | 3.5 | 0.00 | 0.00 | 0.00 | 6 | 1018.5 |
| 20260501225258 | 69 | 216 | 1.7 | 5.2 | 0.00 | 0.00 | 0.00 | 7 | 1018.5 |
| 20260501224802 | 69 | 271 | 1.7 | 5.2 | 0.00 | 0.00 | 0.00 | 8 | 1018.6 |
| 20260501224248 | 69 | 269 | 1.7 | 7.8 | 0.00 | 0.00 | 0.00 | 5 | 1018.6 |
| 20260501223752 | 69 | 275 | 2.6 | 7.0 | 0.00 | 0.00 | 0.00 | 5 | 1018.6 |
| 20260501223300 | 68 | 175 | 1.7 | 7.8 | 0.00 | 0.00 | 0.00 | 9 | 1018.7 |
| 20260501222804 | 68 | 325 | 2.6 | 7.8 | 0.00 | 0.00 | 0.00 | 8 | 1018.8 |
| 20260501222310 | 69 | 189 | 3.5 | 7.0 | 0.00 | 0.00 | 0.00 | 8 | 1018.8 |
| 20260501221752 | 69 | 234 | 3.5 | 7.0 | 0.00 | 0.00 | 0.00 | 7 | 1018.9 |
| 20260501221300 | 69 | 216 | 0.9 | 3.5 | 0.00 | 0.00 | 0.00 | 8 | 1019.0 |
| 20260501220744 | 68 | 79 | 1.7 | 2.6 | 0.00 | 0.00 | 0.00 | 8 | 1019.1 |
| 20260501220311 | 69 | 38 | 1.7 | 6.1 | 0.00 | 0.00 | 0.00 | 6 | 1019.1 |
| 20260501215754 | 69 | 76 | 1.7 | 6.1 | 0.00 | 0.00 | 0.00 | 8 | 1019.2 |
| 20260501215305 | 69 | 159 | 2.6 | 3.5 | 0.00 | 0.00 | 0.00 | 8 | 1019.3 |
| 20260501214744 | 68 | 74 | 1.7 | 3.5 | 0.00 | 0.00 | 0.00 | 9 | 1019.3 |
| 20260501214251 | 68 | 261 | 0.9 | 3.5 | 0.00 | 0.00 | 0.00 | 4 | 1019.4 |
| 20260501213815 | 68 | 254 | 1.7 | 3.5 | 0.00 | 0.00 | 0.00 | 6 | 1019.5 |
| 20260501213259 | 68 | 131 | 1.7 | 5.2 | 0.00 | 0.00 | 0.00 | 7 | 1019.5 |
| 20260501212744 | 68 | 150 | 1.7 | 7.0 | 0.00 | 0.00 | 0.00 | 6 | 1019.6 |
| 20260501212250 | 68 | 266 | 2.6 | 7.0 | 0.00 | 0.00 | 0.00 | 8 | 1019.6 |
| 20260501211753 | 68 | 214 | 2.6 | 5.2 | 0.00 | 0.00 | 0.00 | 10 | 1019.6 |
| 20260501211300 | 67 | 298 | 1.7 | 6.1 | 0.00 | 0.00 | 0.00 | 9 | 1019.6 |
| 20260501210745 | 67 | 162 | 1.7 | 5.2 | 0.00 | 0.00 | 0.00 | 8 | 1019.6 |
| 20260501210251 | 66 | 236 | 2.6 | 6.1 | 0.00 | 0.00 | 0.00 | 9 | 1019.7 |
| 20260501205755 | 66 | 280 | 3.5 | 6.1 | 0.00 | 0.00 | 0.00 | 7 | 1019.7 |
| 20260501205242 | 65 | 30 | 3.5 | 7.0 | 0.00 | 0.00 | 0.00 | 9 | 1019.8 |
| 20260501204746 | 66 | 5 | 4.3 | 7.0 | 0.00 | 0.00 | 0.00 | 10 | 1019.8 |
| 20260501204253 | 66 | 358 | 4.3 | 8.7 | 0.00 | 0.00 | 0.00 | 9 | 1019.9 |
| 20260501203817 | 66 | 29 | 1.7 | 5.2 | 0.00 | 0.00 | 0.00 | 13 | 1019.9 |
| 20260501203304 | 65 | 39 | 2.6 | 6.1 | 0.00 | 0.00 | 0.00 | 11 | 1020.0 |
| 20260501202748 | 66 | 39 | 2.6 | 7.8 | 0.00 | 0.00 | 0.00 | 12 | 1020.1 |
| 20260501202255 | 65 | 21 | 4.3 | 7.8 | 0.00 | 0.00 | 0.00 | 10 | 1020.0 |
| 20260501201739 | 65 | 35 | 3.5 | 7.8 | 0.00 | 0.00 | 0.00 | 11 | 1020.1 |
| 20260501201246 | 66 | 4 | 2.6 | 7.8 | 0.00 | 0.00 | 0.00 | 11 | 1020.1 |
| 20260501200750 | 66 | 330 | 4.3 | 7.0 | 0.00 | 0.00 | 0.00 | 11 | 1020.1 |
| 20260501200258 | 66 | 359 | 3.5 | 7.0 | 0.00 | 0.00 | 0.00 | 13 | 1020.3 |
| 20260501195740 | 66 | 283 | 3.5 | 5.2 | 0.00 | 0.00 | 0.00 | 13 | 1020.2 |
| 20260501195246 | 66 | 331 | 1.7 | 7.0 | 0.00 | 0.00 | 0.00 | 14 | 1020.2 |
| 20260501194809 | 66 | 345 | 3.5 | 7.8 | 0.00 | 0.00 | 0.00 | 12 | 1020.3 |
| 20260501194315 | 66 | 208 | 3.5 | 7.8 | 0.00 | 0.00 | 0.00 | 12 | 1020.3 |
| 20260501193756 | 66 | 328 | 2.6 | 5.2 | 0.00 | 0.00 | 0.00 | 13 | 1020.3 |
| 20260501193301 | 66 | 249 | 3.5 | 4.3 | 0.00 | 0.00 | 0.00 | 12 | 1020.3 |
| 20260501192744 | 65 | 294 | 2.6 | 4.3 | 0.00 | 0.00 | 0.00 | 14 | 1020.3 |
| 20260501192251 | 65 | 345 | 1.7 | 4.3 | 0.00 | 0.00 | 0.00 | 13 | 1020.2 |
| 20260501191755 | 65 | 358 | 3.5 | 4.3 | 0.00 | 0.00 | 0.00 | 12 | 1020.3 |
| 20260501191300 | 65 | 293 | 2.6 | 6.1 | 0.00 | 0.00 | 0.00 | 14 | 1020.4 |
| 20260501190744 | 64 | 56 | 0.9 | 5.2 | 0.00 | 0.00 | 0.00 | 15 | 1020.4 |